Floriston, CA

8:31 AM PDT on September 21, 2014 (GMT -0700)
Glenshire-Devonshire | Change Station
CLOSE
Current Station
Personal Weather Station
Location: Truckee, CA
Elevation: 5970 ft
Nearby Weather Stations

Elev 5970 ft 39.36 °N, 120.09 °W | Updated 10 seconds ago

Overcast
Overcast
53.4 °F
Feels Like 53.4 °F
N
0.0
Wind Variable Wind from North
Gusts 0.0 mph

Today
High -- | Low -- °F
--% Chance of Precip.
Yesterday
High -- | Low -- °F
Precip. -- in
6:46 AM 6:58 PM
Waning Crescent, 6% visible
Pressure 30.18 in
Visibility 0.2 miles
Clouds Overcast 500 ft
Dew Point 41 °F
Humidity 62%
Rainfall 0.04 in
Snow Depth 0 in , 4 in , 1 in
UV 0 out of 12
Pollen 6.20 out of 12
Air Quality Not available.
Flu Activity Not available.
METAR KTRK 211450Z 00000KT 1/4SM FU OVC005 11/06 A3018 RMK NOSPECI FU OVC005

More Conditions Fewer Conditions

Pressure 30.18 in
Visibility 0.2 miles
Clouds Overcast 500 ft
Dew Point 41 °F
Humidity 62%
Rainfall 0.04 in
Snow Depth 0 in , 4 in , 1 in
UV 0 out of 12
Pollen 6.20 out of 12
Air Quality Not available.
Flu Activity Not available.
METAR KTRK 211450Z 00000KT 1/4SM FU OVC005 11/06 A3018 RMK NOSPECI FU OVC005

More Conditions Fewer Conditions

10-Day Weather Forecast

Almanac

Astronomy

Sep. 21, 2014 Rise Set
Actual Time 6:46 AM PDT 6:58 PM PDT
Civil Twilight 6:20 AM PDT 7:25 PM PDT
Nautical Twilight 5:48 AM PDT 7:56 PM PDT
Astronomical Twilight 5:16 AM PDT 8:28 PM PDT
Moon 4:25 AM PDT 5:37 PM PDT
Length of Visible Light 13h 05m
Length of Day
12h 11m
Tomorrow will be 2m 32s shorter.
Waning Crescent, 6% of the Moon is Illuminated
Today
Waning Crescent
Sep 24
New
Oct 1
First Quarter
Oct 8
Full
Oct 15
Last Quarter

Today's Extremes

State Highs State Lows

Community

WunderPhotos

Upload Photos

1,755,177 photos uploaded!

Nearby

Snow Depth

Station Depth Elevation
Adin Mountain 0 in 6200 ft
CSS Lab 4 in 6900 ft
Rubicon #2 0 in 7500 ft
Spratt Creek 1 in 6200 ft
Heavenly Valley 0 in 8850 ft

Earthquake Activity

City Distance Mag. Time & Date
Gabbs, Nevada 105 miles 3.3 4:37 AM PDT
2014-09-19
Livermore, California 150 miles 2.6 3:37 AM PDT
2014-09-19
Minimum magnitude displayed is 2.5.

Coastal Water Temperatures

Place Temperature
No Stations Reporting

Nearby Weather Stations